aviador You're here:

KGLS Decoded Metar

GALVESTON in TX, USA
Report Time2017-07-24 19:52:00
UTC Time2017-07-24 20:47:51
Flight Rules mvfr MVFR
Wind200° at 11 kt
W.Decomp.*RWY 18: 10.5 kt HW 3.4 kt RCW
RWY 14: 5.8 kt HW 9.3 kt RCW
W.Rank200° ranks 8
Current wind is above 200° avg. (9.3)
Visibility8047 m
Phenomena:Haze
Clouds:N/A
Expected CloudBase > 2,400 ft AGL from Temp-Dew spread
CeilingNone
Temp31°C (ISA +16)
Dew Point25°C (70% RH)
Heat Index37.6°C
QNH1016 hPa
Density Alt2,169 ft
Elevation20 ft
Report Wrong Elevation
Raw Report
KGLS 241952Z 20011KT 5SM HZ CLR 31/25 A3001 RMK AO2 SLP160
T03110250=

Extra information for KGLS:More info

Metar Taf Metar & Taf Last 4 Metars F.Rules Stats Wind Profile Meteogram Temp Stats Airport Information Weather charts Add Link Nearby VenuesMetar ALERT Operation Metar Decoded Social comments

AIRNAV info for KGLS